Time;durP1;ratioP1;P1;durP2;ratioP2;P2;SDS_P1;SDS_P2;PMS_P1;PMS_P2;Temp;Humidity;BMP_temperature;BMP_pressure;BME280_temperature;BME280_humidity;BME280_pressure;Samples;Min_cycle;Max_cycle;Signal;HPM_P1;HPM_P2
2022/03/16 00:01:26;;;;;;;24.00;16.23;;;;;;;;;;5075105;28;20766;-73
2022/03/16 00:03:52;;;;;;;28.70;16.90;;;;;;;;;;5075044;28;20416;-73
2022/03/16 00:06:19;;;;;;;27.70;16.23;;;;;;;;;;5074987;28;20498;-73
2022/03/16 00:08:45;;;;;;;30.77;17.43;;;;;;;;;;5074960;28;20409;-72
2022/03/16 00:11:13;;;;;;;25.00;16.10;;;;;;;;;;5075075;28;20944;-72
2022/03/16 00:13:39;;;;;;;26.17;16.70;;;;;;;;;;5073583;28;20468;-72
2022/03/16 00:16:05;;;;;;;29.27;16.97;;;;;;;;;;5074828;28;20551;-72
2022/03/16 00:18:31;;;;;;;29.20;18.63;;;;;;;;;;5073502;28;20927;-72
2022/03/16 00:20:59;;;;;;;29.17;17.90;;;;;;;;;;5074610;28;20924;-72
2022/03/16 00:23:26;;;;;;;28.17;18.23;;;;;;;;;;5074704;28;20408;-65
2022/03/16 00:25:52;;;;;;;31.23;19.43;;;;;;;;;;5074600;28;20455;-64
2022/03/16 00:28:18;;;;;;;27.67;17.73;;;;;;;;;;5074668;28;20413;-64
2022/03/16 00:30:44;;;;;;;29.47;19.23;;;;;;;;;;5074517;28;20389;-63
2022/03/16 00:33:11;;;;;;;29.97;18.93;;;;;;;;;;5074507;28;20463;-63
2022/03/16 00:35:37;;;;;;;34.03;19.50;;;;;;;;;;5074441;28;20538;-63
2022/03/16 00:38:03;;;;;;;30.87;20.10;;;;;;;;;;5074379;28;20786;-73
2022/03/16 00:40:29;;;;;;;29.90;18.67;;;;;;;;;;5074100;28;20409;-73
2022/03/16 00:42:55;;;;;;;30.43;18.70;;;;;;;;;;5074370;28;20495;-73
2022/03/16 00:45:21;;;;;;;33.27;19.90;;;;;;;;;;5074220;28;20407;-73
2022/03/16 00:47:47;;;;;;;29.67;18.57;;;;;;;;;;5074220;28;20416;-74
2022/03/16 00:50:13;;;;;;;32.40;19.30;;;;;;;;;;5074128;28;20470;-72
2022/03/16 00:52:39;;;;;;;32.10;20.53;;;;;;;;;;5074067;28;20967;-74
2022/03/16 00:55:06;;;;;;;35.47;20.33;;;;;;;;;;5073979;28;20401;-72
2022/03/16 00:57:32;;;;;;;33.60;20.23;;;;;;;;;;5074013;28;20419;-73
2022/03/16 00:59:58;;;;;;;35.03;21.17;;;;;;;;;;5073891;28;20466;-74
2022/03/16 01:02:27;;;;;;;31.47;20.20;;;;;;;;;;5074285;28;20427;-73
2022/03/16 01:04:53;;;;;;;35.03;21.73;;;;;;;;;;5073752;28;20468;-72
2022/03/16 01:07:19;;;;;;;34.50;21.00;;;;;;;;;;5073880;28;20416;-72
2022/03/16 01:09:45;;;;;;;34.47;20.00;;;;;;;;;;5073679;28;20421;-72
2022/03/16 01:12:11;;;;;;;34.70;21.43;;;;;;;;;;5073661;28;20419;-72
2022/03/16 01:14:37;;;;;;;38.90;22.20;;;;;;;;;;5073694;28;20415;-73
2022/03/16 01:17:03;;;;;;;37.07;23.10;;;;;;;;;;5073639;28;20511;-73
2022/03/16 01:19:29;;;;;;;37.13;22.70;;;;;;;;;;5073551;28;20431;-63
2022/03/16 01:21:56;;;;;;;37.10;22.30;;;;;;;;;;5073698;28;20412;-64
2022/03/16 01:24:22;;;;;;;37.30;21.90;;;;;;;;;;5073381;28;20404;-63
2022/03/16 01:26:48;;;;;;;37.03;20.83;;;;;;;;;;5073423;28;20404;-64
2022/03/16 01:29:14;;;;;;;35.13;21.07;;;;;;;;;;5073539;28;20409;-64
2022/03/16 01:31:39;;;;;;;33.77;21.20;;;;;;;;;;5072201;28;20439;-70
2022/03/16 01:34:06;;;;;;;35.53;21.70;;;;;;;;;;5073425;28;20541;-72
2022/03/16 01:36:32;;;;;;;38.13;22.73;;;;;;;;;;5072915;28;20563;-73
2022/03/16 01:38:58;;;;;;;36.50;21.90;;;;;;;;;;5073383;28;20755;-73
2022/03/16 01:41:24;;;;;;;38.03;22.70;;;;;;;;;;5073192;28;20397;-73
2022/03/16 01:43:54;;;;;;;39.83;23.73;;;;;;;;;;5073169;28;20423;-75
2022/03/16 01:46:20;;;;;;;41.33;22.37;;;;;;;;;;5073106;28;20967;-74
2022/03/16 01:48:46;;;;;;;39.40;22.70;;;;;;;;;;5073283;28;20417;-73
2022/03/16 01:51:12;;;;;;;39.17;23.27;;;;;;;;;;5073195;28;20397;-73
2022/03/16 01:53:41;;;;;;;35.40;21.30;;;;;;;;;;5073145;28;20677;-74
2022/03/16 01:56:08;;;;;;;39.20;22.80;;;;;;;;;;5073052;28;20772;-73
2022/03/16 01:58:34;;;;;;;37.90;23.70;;;;;;;;;;5073020;28;20823;-74
2022/03/16 02:01:00;;;;;;;35.83;22.23;;;;;;;;;;5073128;28;20415;-74
2022/03/16 02:03:26;;;;;;;37.83;23.10;;;;;;;;;;5072987;28;20451;-74
2022/03/16 02:05:52;;;;;;;33.20;20.60;;;;;;;;;;5072797;28;20459;-73
2022/03/16 02:08:18;;;;;;;41.20;22.50;;;;;;;;;;5073060;28;20436;-66
2022/03/16 02:10:44;;;;;;;38.93;22.87;;;;;;;;;;5072967;28;20411;-74
2022/03/16 02:13:11;;;;;;;35.93;24.07;;;;;;;;;;5072919;28;20467;-64
2022/03/16 02:15:37;;;;;;;41.63;24.50;;;;;;;;;;5072809;28;20447;-65
2022/03/16 02:18:03;;;;;;;39.03;23.53;;;;;;;;;;5072906;28;20559;-65
2022/03/16 02:20:29;;;;;;;38.03;23.50;;;;;;;;;;5072938;28;20396;-64
2022/03/16 02:22:59;;;;;;;35.10;21.90;;;;;;;;;;5072804;28;20412;-64
2022/03/16 02:25:26;;;;;;;38.47;23.53;;;;;;;;;;5071705;28;20473;-67
2022/03/16 02:27:52;;;;;;;35.97;22.10;;;;;;;;;;5072758;28;20900;-74
2022/03/16 02:30:20;;;;;;;38.50;22.27;;;;;;;;;;5072722;28;20396;-74
2022/03/16 02:32:46;;;;;;;39.17;23.67;;;;;;;;;;5072749;28;20455;-75
2022/03/16 02:35:12;;;;;;;36.63;22.70;;;;;;;;;;5072784;28;20393;-73
2022/03/16 02:37:39;;;;;;;39.93;24.10;;;;;;;;;;5072772;28;20436;-73
2022/03/16 02:40:06;;;;;;;40.97;23.20;;;;;;;;;;5072541;28;20907;-74
2022/03/16 02:42:32;;;;;;;35.27;21.83;;;;;;;;;;5072597;28;20428;-74
2022/03/16 02:44:58;;;;;;;37.20;24.10;;;;;;;;;;5072646;28;20480;-74
2022/03/16 02:47:24;;;;;;;43.67;24.00;;;;;;;;;;5073404;28;20504;-74
2022/03/16 02:49:51;;;;;;;41.60;24.00;;;;;;;;;;5076491;28;20496;-73
2022/03/16 02:52:17;;;;;;;35.87;23.23;;;;;;;;;;5076360;28;20921;-73
2022/03/16 02:54:44;;;;;;;43.33;23.90;;;;;;;;;;5076425;28;20512;-74
2022/03/16 02:57:13;;;;;;;42.53;25.20;;;;;;;;;;5076273;28;20471;-73
2022/03/16 02:59:39;;;;;;;41.70;24.03;;;;;;;;;;5076237;28;20398;-74
2022/03/16 03:02:05;;;;;;;44.50;25.00;;;;;;;;;;5076185;28;20586;-75
2022/03/16 03:04:31;;;;;;;46.50;25.40;;;;;;;;;;5075834;28;20459;-74
2022/03/16 03:06:57;;;;;;;47.70;24.97;;;;;;;;;;5076106;28;20416;-74
2022/03/16 03:09:23;;;;;;;47.20;25.80;;;;;;;;;;5076011;28;20401;-74
2022/03/16 03:11:49;;;;;;;52.07;26.90;;;;;;;;;;5076085;28;20407;-64
2022/03/16 03:14:15;;;;;;;46.47;26.47;;;;;;;;;;5075941;28;20468;-64
2022/03/16 03:16:41;;;;;;;53.00;28.63;;;;;;;;;;5075803;28;20477;-65
2022/03/16 03:19:07;;;;;;;50.70;27.70;;;;;;;;;;5075787;28;20812;-64
2022/03/16 03:21:33;;;;;;;48.03;26.27;;;;;;;;;;5075921;28;20405;-73
2022/03/16 03:23:59;;;;;;;57.00;25.93;;;;;;;;;;5075764;28;20404;-75
2022/03/16 03:26:25;;;;;;;53.27;27.67;;;;;;;;;;5075736;28;20408;-75
2022/03/16 03:28:51;;;;;;;52.53;27.77;;;;;;;;;;5075638;28;20773;-75
2022/03/16 03:31:17;;;;;;;47.37;26.07;;;;;;;;;;5075762;28;20415;-75
2022/03/16 03:33:43;;;;;;;52.30;27.60;;;;;;;;;;5075490;28;20586;-75
2022/03/16 03:36:09;;;;;;;50.53;27.23;;;;;;;;;;5075613;28;20479;-75
2022/03/16 03:38:35;;;;;;;54.67;27.90;;;;;;;;;;5074310;28;20415;-73
2022/03/16 03:41:01;;;;;;;54.67;28.10;;;;;;;;;;5075512;28;20431;-74
2022/03/16 03:43:27;;;;;;;49.90;28.20;;;;;;;;;;5075327;28;20413;-76
2022/03/16 03:45:53;;;;;;;54.10;28.80;;;;;;;;;;5074278;28;20953;-75
2022/03/16 03:48:19;;;;;;;51.87;27.77;;;;;;;;;;5075382;28;20401;-75
2022/03/16 03:50:45;;;;;;;59.67;27.30;;;;;;;;;;5075249;28;20491;-75
2022/03/16 03:53:11;;;;;;;49.47;26.00;;;;;;;;;;5075179;28;20468;-73
2022/03/16 03:55:37;;;;;;;57.23;28.70;;;;;;;;;;5075190;28;20399;-75
2022/03/16 03:58:03;;;;;;;51.63;27.60;;;;;;;;;;5074821;28;20887;-76
2022/03/16 04:00:29;;;;;;;56.50;29.17;;;;;;;;;;5075180;28;20412;-75
2022/03/16 04:02:55;;;;;;;52.00;28.90;;;;;;;;;;5074981;28;20427;-75
2022/03/16 04:05:21;;;;;;;54.90;28.30;;;;;;;;;;5074761;28;20966;-73
2022/03/16 04:07:48;;;;;;;57.00;28.73;;;;;;;;;;5075053;28;20486;-75
2022/03/16 04:10:14;;;;;;;55.90;29.33;;;;;;;;;;5075042;28;20905;-64
2022/03/16 04:12:40;;;;;;;53.30;27.50;;;;;;;;;;5074864;28;20839;-65
2022/03/16 04:15:06;;;;;;;55.93;27.00;;;;;;;;;;5074798;28;20419;-73
2022/03/16 04:17:32;;;;;;;53.70;27.47;;;;;;;;;;5074769;28;20392;-63
2022/03/16 04:19:58;;;;;;;47.73;26.60;;;;;;;;;;5074764;28;20412;-64
2022/03/16 04:22:27;;;;;;;51.93;27.27;;;;;;;;;;5074758;28;20435;-74
2022/03/16 04:24:54;;;;;;;55.40;27.23;;;;;;;;;;5074554;28;20447;-75
2022/03/16 04:27:20;;;;;;;52.60;27.50;;;;;;;;;;5074634;28;20891;-75
2022/03/16 04:29:46;;;;;;;64.57;27.87;;;;;;;;;;5074474;28;20838;-75
2022/03/16 04:32:12;;;;;;;57.37;29.70;;;;;;;;;;5074479;28;20404;-75
2022/03/16 04:34:39;;;;;;;55.10;28.47;;;;;;;;;;5073278;28;20425;-75
2022/03/16 04:37:05;;;;;;;53.00;27.93;;;;;;;;;;5074420;28;20411;-75
2022/03/16 04:39:31;;;;;;;56.03;28.00;;;;;;;;;;5074314;28;20412;-75
2022/03/16 04:41:57;;;;;;;59.20;31.20;;;;;;;;;;5074229;28;20489;-75
2022/03/16 04:44:24;;;;;;;51.47;27.70;;;;;;;;;;5074163;28;20397;-75
2022/03/16 04:46:50;;;;;;;50.50;27.50;;;;;;;;;;5074293;28;20428;-75
2022/03/16 04:49:16;;;;;;;57.50;30.23;;;;;;;;;;5074058;28;20400;-75
2022/03/16 04:51:42;;;;;;;59.30;29.40;;;;;;;;;;5074151;28;20400;-74
2022/03/16 04:54:08;;;;;;;56.77;30.63;;;;;;;;;;5073967;28;20460;-75
2022/03/16 04:56:35;;;;;;;61.40;29.90;;;;;;;;;;5074036;28;20431;-76
2022/03/16 04:59:01;;;;;;;55.17;28.70;;;;;;;;;;5072763;28;20760;-68
2022/03/16 05:01:27;;;;;;;60.03;28.50;;;;;;;;;;5060040;28;20418;-74
2022/03/16 05:03:53;;;;;;;64.63;31.27;;;;;;;;;;5043853;28;20906;-74
2022/03/16 05:06:20;;;;;;;66.67;31.60;;;;;;;;;;5057530;28;20471;-75
2022/03/16 05:08:47;;;;;;;68.97;32.60;;;;;;;;;;5072739;28;20396;-76
2022/03/16 05:11:14;;;;;;;67.37;30.70;;;;;;;;;;5070763;28;20423;-75
2022/03/16 05:13:40;;;;;;;69.73;32.07;;;;;;;;;;5072079;28;20468;-63
2022/03/16 05:16:07;;;;;;;64.83;32.90;;;;;;;;;;5071696;28;20523;-64
2022/03/16 05:18:33;;;;;;;63.07;31.30;;;;;;;;;;5071979;28;20430;-74
2022/03/16 05:21:00;;;;;;;64.00;30.50;;;;;;;;;;5071720;28;20950;-76
2022/03/16 05:23:26;;;;;;;64.63;32.00;;;;;;;;;;5072091;28;20451;-74
2022/03/16 05:25:52;;;;;;;62.47;30.07;;;;;;;;;;5072055;28;20408;-74
2022/03/16 05:28:18;;;;;;;67.30;31.93;;;;;;;;;;5072197;28;20428;-71
2022/03/16 05:30:44;;;;;;;59.70;32.40;;;;;;;;;;5072866;28;20507;-77
2022/03/16 05:33:10;;;;;;;60.50;30.73;;;;;;;;;;5072091;28;20472;-77
2022/03/16 05:35:36;;;;;;;59.53;31.03;;;;;;;;;;5073475;28;20426;-75
2022/03/16 05:38:05;;;;;;;64.33;31.43;;;;;;;;;;5072060;28;20841;-77
2022/03/16 05:40:31;;;;;;;62.40;31.70;;;;;;;;;;5073256;28;20466;-79
2022/03/16 05:42:57;;;;;;;63.27;31.00;;;;;;;;;;5073430;28;20417;-78
2022/03/16 05:45:23;;;;;;;61.07;31.20;;;;;;;;;;5073677;28;20905;-78
2022/03/16 05:47:49;;;;;;;76.67;33.30;;;;;;;;;;5073411;28;20904;-79
2022/03/16 05:50:15;;;;;;;58.00;30.07;;;;;;;;;;5073299;28;20899;-78
2022/03/16 05:52:43;;;;;;;64.30;31.07;;;;;;;;;;5073110;28;20456;-79
2022/03/16 05:55:09;;;;;;;59.30;30.70;;;;;;;;;;5073223;28;20476;-79
2022/03/16 05:57:40;;;;;;;64.73;31.50;;;;;;;;;;5073287;28;20427;-77
2022/03/16 06:00:06;;;;;;;59.17;30.67;;;;;;;;;;5073202;28;20410;-74
2022/03/16 06:02:32;;;;;;;55.97;29.40;;;;;;;;;;5073286;28;20408;-77
2022/03/16 06:04:58;;;;;;;58.80;30.77;;;;;;;;;;5073388;28;20464;-78
2022/03/16 06:07:24;;;;;;;63.67;31.20;;;;;;;;;;5073893;28;20880;-66
2022/03/16 06:09:50;;;;;;;55.77;28.80;;;;;;;;;;5075798;28;20416;-65
2022/03/16 06:12:16;;;;;;;56.77;28.57;;;;;;;;;;5074861;28;20401;-73
2022/03/16 06:14:42;;;;;;;58.03;29.57;;;;;;;;;;5073163;28;20417;-77
2022/03/16 06:17:08;;;;;;;62.20;32.10;;;;;;;;;;5073465;28;20436;-66
2022/03/16 06:19:34;;;;;;;50.13;27.87;;;;;;;;;;5072946;28;20467;-68
2022/03/16 06:22:00;;;;;;;56.97;30.10;;;;;;;;;;5075382;28;20465;-65
2022/03/16 06:24:26;;;;;;;58.63;29.87;;;;;;;;;;5077316;28;20487;-65
2022/03/16 06:26:52;;;;;;;55.73;30.57;;;;;;;;;;5077346;28;20444;-66
2022/03/16 06:29:18;;;;;;;61.27;31.50;;;;;;;;;;5077345;28;20416;-71
2022/03/16 06:31:44;;;;;;;58.47;30.23;;;;;;;;;;5077498;28;20413;-69
2022/03/16 06:34:10;;;;;;;74.97;34.20;;;;;;;;;;5076473;28;20567;-65
2022/03/16 06:36:36;;;;;;;68.10;32.00;;;;;;;;;;5077205;28;20416;-65
2022/03/16 06:39:03;;;;;;;65.43;33.20;;;;;;;;;;5076640;28;20908;-64
2022/03/16 06:41:29;;;;;;;60.33;30.33;;;;;;;;;;5076548;28;20408;-63
2022/03/16 06:43:55;;;;;;;68.40;32.83;;;;;;;;;;5076457;28;20419;-62
2022/03/16 06:46:21;;;;;;;61.63;31.03;;;;;;;;;;5076523;28;20420;-63
2022/03/16 06:48:47;;;;;;;64.30;32.30;;;;;;;;;;5076549;28;20459;-64
2022/03/16 06:51:13;;;;;;;60.57;30.87;;;;;;;;;;5076385;28;20418;-67
2022/03/16 06:53:39;;;;;;;65.17;31.80;;;;;;;;;;5076436;28;20971;-62
2022/03/16 06:56:05;;;;;;;63.93;28.93;;;;;;;;;;5076375;28;20463;-67
2022/03/16 06:58:31;;;;;;;60.63;30.43;;;;;;;;;;5076294;28;20392;-63
2022/03/16 07:00:57;;;;;;;54.97;29.50;;;;;;;;;;5076317;28;20488;-63
2022/03/16 07:03:23;;;;;;;62.27;29.03;;;;;;;;;;5076175;28;20868;-66
2022/03/16 07:05:49;;;;;;;61.43;32.30;;;;;;;;;;5075965;28;20971;-66
2022/03/16 07:08:16;;;;;;;61.37;29.30;;;;;;;;;;5076207;28;20415;-74
2022/03/16 07:10:43;;;;;;;62.37;29.97;;;;;;;;;;5076098;28;20444;-75
2022/03/16 07:13:11;;;;;;;60.20;28.10;;;;;;;;;;5076038;28;20467;-73
2022/03/16 07:15:37;;;;;;;59.83;29.77;;;;;;;;;;5075927;28;20424;-74
2022/03/16 07:18:03;;;;;;;55.33;28.00;;;;;;;;;;5075959;28;20417;-72
2022/03/16 07:20:30;;;;;;;57.83;28.60;;;;;;;;;;5074561;28;20507;-72
2022/03/16 07:23:03;;;;;;;59.57;30.33;;;;;;;;;;5075926;28;20404;-74
2022/03/16 07:25:29;;;;;;;54.10;28.23;;;;;;;;;;5075916;28;20420;-73
2022/03/16 07:27:55;;;;;;;56.93;29.07;;;;;;;;;;5075862;28;20416;-73
2022/03/16 07:30:21;;;;;;;55.23;27.90;;;;;;;;;;5075782;28;20436;-76
2022/03/16 07:32:47;;;;;;;53.47;26.40;;;;;;;;;;5074922;28;20966;-76
2022/03/16 07:35:13;;;;;;;56.33;27.60;;;;;;;;;;5075595;28;20416;-76
2022/03/16 07:37:42;;;;;;;56.60;27.67;;;;;;;;;;5075745;28;20408;-69
2022/03/16 07:40:08;;;;;;;55.30;26.00;;;;;;;;;;5075494;28;20477;-63
2022/03/16 07:42:34;;;;;;;54.27;27.53;;;;;;;;;;5075505;28;20405;-68
2022/03/16 07:45:00;;;;;;;48.93;26.33;;;;;;;;;;5075472;28;20450;-70
2022/03/16 07:47:26;;;;;;;48.17;24.37;;;;;;;;;;5075572;28;20404;-64
2022/03/16 07:49:56;;;;;;;47.80;24.50;;;;;;;;;;5075321;28;20801;-71
2022/03/16 07:52:23;;;;;;;51.93;24.53;;;;;;;;;;5075302;28;20401;-68
2022/03/16 07:54:49;;;;;;;46.33;24.77;;;;;;;;;;5075391;28;20462;-63
2022/03/16 07:57:16;;;;;;;45.23;23.10;;;;;;;;;;5075305;28;20392;-67
2022/03/16 07:59:42;;;;;;;45.60;23.73;;;;;;;;;;5075231;28;20409;-64
2022/03/16 08:02:08;;;;;;;49.60;24.30;;;;;;;;;;5075199;28;20396;-65
2022/03/16 08:04:34;;;;;;;50.97;24.93;;;;;;;;;;5073598;28;20505;-63
2022/03/16 08:07:00;;;;;;;44.97;21.67;;;;;;;;;;5075239;28;20409;-63
2022/03/16 08:09:26;;;;;;;46.30;23.50;;;;;;;;;;5075003;28;20945;-63
2022/03/16 08:11:52;;;;;;;41.90;22.80;;;;;;;;;;5074900;28;20435;-63
2022/03/16 08:14:18;;;;;;;49.80;23.60;;;;;;;;;;5074816;28;21001;-62
2022/03/16 08:16:44;;;;;;;40.47;22.10;;;;;;;;;;5074875;28;20939;-65
2022/03/16 08:19:13;;;;;;;41.43;22.70;;;;;;;;;;5074872;28;20753;-67
2022/03/16 08:21:39;;;;;;;45.90;23.13;;;;;;;;;;5074697;28;20404;-66
2022/03/16 08:24:05;;;;;;;41.87;21.30;;;;;;;;;;5074605;28;20822;-66
2022/03/16 08:26:31;;;;;;;40.73;21.90;;;;;;;;;;5073469;28;20450;-69
2022/03/16 08:28:57;;;;;;;41.93;22.80;;;;;;;;;;5074650;28;20405;-68
2022/03/16 08:31:23;;;;;;;41.60;21.50;;;;;;;;;;5074729;28;20496;-67
2022/03/16 08:33:49;;;;;;;41.83;22.60;;;;;;;;;;5074357;28;20530;-75
2022/03/16 08:36:15;;;;;;;44.87;24.10;;;;;;;;;;5074642;28;20428;-69
2022/03/16 08:38:41;;;;;;;41.20;22.83;;;;;;;;;;5074525;28;20969;-66
2022/03/16 08:41:10;;;;;;;39.97;21.97;;;;;;;;;;5073119;28;20419;-67
2022/03/16 08:43:36;;;;;;;41.47;21.20;;;;;;;;;;5074355;28;20440;-66
2022/03/16 08:46:02;;;;;;;41.07;23.23;;;;;;;;;;5073266;28;20406;-67
2022/03/16 08:48:29;;;;;;;40.20;21.97;;;;;;;;;;5074371;28;20849;-69
2022/03/16 08:50:55;;;;;;;46.20;22.90;;;;;;;;;;5074266;28;20406;-68
2022/03/16 08:53:21;;;;;;;44.40;22.50;;;;;;;;;;5074098;28;20474;-64
2022/03/16 08:55:47;;;;;;;43.80;22.07;;;;;;;;;;5074169;28;20409;-63
2022/03/16 08:58:14;;;;;;;39.10;21.80;;;;;;;;;;5074070;28;20413;-69
2022/03/16 09:00:41;;;;;;;42.50;22.97;;;;;;;;;;5074064;28;20433;-69
2022/03/16 09:03:07;;;;;;;41.23;22.23;;;;;;;;;;5074997;28;20417;-65
2022/03/16 09:05:33;;;;;;;43.80;21.77;;;;;;;;;;5074109;28;20510;-70
2022/03/16 09:07:59;;;;;;;42.60;22.33;;;;;;;;;;5073909;28;20411;-67
2022/03/16 09:10:25;;;;;;;37.47;20.30;;;;;;;;;;5073754;28;20419;-64
2022/03/16 09:12:51;;;;;;;38.87;21.10;;;;;;;;;;5073667;28;20503;-62
2022/03/16 09:15:17;;;;;;;37.77;19.90;;;;;;;;;;5073635;28;20433;-66
2022/03/16 09:17:43;;;;;;;38.00;21.07;;;;;;;;;;5073676;28;20900;-64
2022/03/16 09:20:09;;;;;;;34.40;18.50;;;;;;;;;;5073601;28;20427;-63
2022/03/16 09:22:35;;;;;;;39.43;21.10;;;;;;;;;;5073405;28;20416;-69
2022/03/16 09:25:01;;;;;;;41.17;21.47;;;;;;;;;;5073716;28;20496;-63
2022/03/16 09:27:28;;;;;;;38.00;21.77;;;;;;;;;;5073462;28;20433;-67
2022/03/16 09:29:55;;;;;;;38.27;21.57;;;;;;;;;;5073407;28;20409;-69
2022/03/16 09:32:21;;;;;;;40.63;21.00;;;;;;;;;;5073401;28;20411;-72
2022/03/16 09:34:48;;;;;;;38.93;21.07;;;;;;;;;;5073618;28;20424;-67
2022/03/16 09:37:14;;;;;;;40.77;20.87;;;;;;;;;;5073518;28;20404;-64
2022/03/16 09:39:40;;;;;;;39.33;20.67;;;;;;;;;;5071973;28;20417;-63
2022/03/16 09:42:06;;;;;;;35.87;20.50;;;;;;;;;;5073256;28;20887;-65
2022/03/16 09:44:32;;;;;;;40.20;21.50;;;;;;;;;;5073307;28;20405;-63
2022/03/16 09:46:59;;;;;;;45.47;21.50;;;;;;;;;;5073096;28;20428;-65
2022/03/16 09:49:26;;;;;;;35.10;19.50;;;;;;;;;;5073325;28;20433;-73
2022/03/16 09:51:53;;;;;;;44.23;20.77;;;;;;;;;;5073239;28;20899;-63
2022/03/16 09:54:19;;;;;;;39.23;21.10;;;;;;;;;;5073158;28;20533;-63
2022/03/16 09:56:47;;;;;;;47.10;21.27;;;;;;;;;;5074021;28;20404;-63
2022/03/16 09:59:13;;;;;;;39.83;21.60;;;;;;;;;;5073078;28;20410;-70
2022/03/16 10:01:39;;;;;;;38.17;21.87;;;;;;;;;;5073086;28;20496;-74
2022/03/16 10:04:06;;;;;;;33.07;19.80;;;;;;;;;;5072943;28;20440;-70
2022/03/16 10:06:32;;;;;;;36.53;21.10;;;;;;;;;;5073209;28;20400;-75
2022/03/16 10:14:27;;;;;;;32.00;19.50;;;;;;;;;;5072992;28;20467;-78
2022/03/16 10:19:54;;;;;;;34.33;19.20;;;;;;;;;;5073084;28;20424;-78
2022/03/16 10:22:26;;;;;;;28.20;17.83;;;;;;;;;;5073127;28;20396;-67
2022/03/16 10:25:02;;;;;;;33.13;18.27;;;;;;;;;;5072974;28;20444;-69
2022/03/16 10:27:28;;;;;;;33.77;17.37;;;;;;;;;;5073087;28;20454;-77
2022/03/16 10:29:54;;;;;;;26.30;15.80;;;;;;;;;;5072854;28;20815;-75
2022/03/16 10:32:22;;;;;;;26.67;14.83;;;;;;;;;;5072787;28;20452;-72
2022/03/16 10:34:49;;;;;;;24.23;15.27;;;;;;;;;;5073067;28;20900;-68
2022/03/16 10:37:23;;;;;;;27.73;16.40;;;;;;;;;;5072718;28;20405;-64
2022/03/16 10:39:51;;;;;;;26.00;16.40;;;;;;;;;;5072825;28;20411;-70
2022/03/16 10:47:58;;;;;;;25.00;15.70;;;;;;;;;;5072702;28;20484;-70
2022/03/16 10:50:24;;;;;;;23.27;15.50;;;;;;;;;;5072594;28;20881;-69
2022/03/16 10:52:50;;;;;;;24.80;14.60;;;;;;;;;;5072611;28;20844;-75
2022/03/16 10:55:17;;;;;;;25.60;16.37;;;;;;;;;;5072591;28;20440;-77
2022/03/16 10:57:43;;;;;;;24.73;14.80;;;;;;;;;;5072606;28;20910;-77
2022/03/16 11:00:10;;;;;;;27.90;16.07;;;;;;;;;;5072516;28;20512;-76
2022/03/16 11:02:37;;;;;;;21.57;15.13;;;;;;;;;;5072706;28;20397;-79
2022/03/16 11:05:03;;;;;;;23.80;15.13;;;;;;;;;;5072573;28;20463;-80
2022/03/16 11:07:30;;;;;;;27.10;16.67;;;;;;;;;;5072717;28;20409;-68
2022/03/16 11:09:57;;;;;;;22.10;14.10;;;;;;;;;;5075666;28;20412;-80
2022/03/16 11:15:08;;;;;;;22.63;14.63;;;;;;;;;;5076387;28;20795;-66
2022/03/16 11:17:36;;;;;;;25.43;14.83;;;;;;;;;;5076060;28;20416;-76
2022/03/16 11:20:03;;;;;;;24.63;15.17;;;;;;;;;;5075956;28;20400;-73
2022/03/16 11:22:37;;;;;;;25.20;16.30;;;;;;;;;;5075962;28;20755;-73
2022/03/16 11:25:03;;;;;;;23.77;15.60;;;;;;;;;;5075930;28;20404;-66
2022/03/16 11:27:45;;;;;;;26.90;15.47;;;;;;;;;;5075884;28;20401;-70
2022/03/16 11:30:15;;;;;;;23.97;15.83;;;;;;;;;;5075753;28;20459;-67
2022/03/16 11:32:46;;;;;;;22.80;15.73;;;;;;;;;;5075703;28;20954;-72
2022/03/16 11:35:15;;;;;;;20.70;14.10;;;;;;;;;;5075847;28;20413;-67
2022/03/16 11:37:44;;;;;;;25.50;16.67;;;;;;;;;;5075721;28;20397;-70
2022/03/16 11:40:13;;;;;;;24.17;15.07;;;;;;;;;;5075534;28;20400;-73
2022/03/16 11:42:40;;;;;;;23.23;13.50;;;;;;;;;;5074236;28;20482;-68
2022/03/16 11:45:25;;;;;;;22.40;15.27;;;;;;;;;;5074017;28;20896;-63
2022/03/16 11:47:51;;;;;;;21.27;15.13;;;;;;;;;;5075500;28;20431;-63
2022/03/16 11:50:19;;;;;;;25.10;16.03;;;;;;;;;;5075483;28;20404;-73
2022/03/16 11:52:59;;;;;;;25.73;17.23;;;;;;;;;;5075386;28;20489;-77
2022/03/16 11:55:42;;;;;;;26.83;17.03;;;;;;;;;;5075398;28;20444;-78
2022/03/16 11:58:28;;;;;;;24.60;15.83;;;;;;;;;;5075335;28;20392;-76
2022/03/16 12:01:13;;;;;;;23.87;15.50;;;;;;;;;;5075549;28;20413;-72
2022/03/16 12:03:43;;;;;;;23.63;15.23;;;;;;;;;;5075547;28;20435;-76
2022/03/16 12:06:09;;;;;;;22.30;14.80;;;;;;;;;;5075157;28;20451;-69
2022/03/16 12:08:51;;;;;;;24.90;15.73;;;;;;;;;;5075001;28;20952;-73
2022/03/16 12:14:05;;;;;;;25.23;17.70;;;;;;;;;;5075118;28;20990;-72
2022/03/16 12:16:40;;;;;;;27.67;18.37;;;;;;;;;;5073615;28;20437;-78
2022/03/16 12:19:25;;;;;;;22.37;15.47;;;;;;;;;;5074828;28;20400;-76
2022/03/16 12:21:51;;;;;;;23.03;15.47;;;;;;;;;;5074907;28;20967;-63
2022/03/16 12:30:02;;;;;;;22.30;13.40;;;;;;;;;;5074762;28;20946;-66
2022/03/16 12:32:32;;;;;;;25.47;16.17;;;;;;;;;;5074593;28;20463;-77
2022/03/16 12:35:00;;;;;;;26.67;17.00;;;;;;;;;;5074653;28;20499;-67
2022/03/16 12:37:26;;;;;;;24.43;15.07;;;;;;;;;;5074609;28;20420;-72
2022/03/16 12:39:52;;;;;;;29.30;14.33;;;;;;;;;;5074335;28;20424;-70
2022/03/16 12:42:33;;;;;;;26.20;15.67;;;;;;;;;;5074509;28;20497;-64
2022/03/16 12:45:12;;;;;;;24.60;15.80;;;;;;;;;;5074367;28;20760;-67
2022/03/16 12:47:44;;;;;;;19.17;13.90;;;;;;;;;;5074504;28;20407;-70
2022/03/16 12:50:12;;;;;;;24.37;14.13;;;;;;;;;;5077748;28;20408;-71
2022/03/16 12:52:39;;;;;;;26.23;14.37;;;;;;;;;;5076384;28;20405;-75
2022/03/16 12:55:15;;;;;;;21.83;14.33;;;;;;;;;;5074157;28;20409;-78
2022/03/16 12:57:50;;;;;;;21.63;14.30;;;;;;;;;;5074337;28;20500;-78
2022/03/16 13:00:17;;;;;;;20.37;14.13;;;;;;;;;;5074101;28;20408;-75
2022/03/16 13:02:44;;;;;;;23.57;15.40;;;;;;;;;;5074090;28;20450;-77
2022/03/16 13:05:11;;;;;;;22.40;15.20;;;;;;;;;;5073929;28;20469;-78
2022/03/16 13:07:38;;;;;;;22.30;14.20;;;;;;;;;;5074036;28;20419;-76
2022/03/16 13:10:06;;;;;;;24.37;15.40;;;;;;;;;;5073924;28;20405;-73
2022/03/16 13:12:32;;;;;;;24.23;16.03;;;;;;;;;;5073785;28;20462;-76
2022/03/16 13:14:58;;;;;;;20.50;13.90;;;;;;;;;;5072592;28;20428;-77
2022/03/16 13:17:24;;;;;;;20.83;14.57;;;;;;;;;;5073686;28;20910;-78
2022/03/16 13:19:55;;;;;;;23.10;14.73;;;;;;;;;;5073725;28;20498;-76
2022/03/16 13:22:26;;;;;;;19.70;13.93;;;;;;;;;;5073917;28;20876;-76
2022/03/16 13:24:53;;;;;;;21.83;14.63;;;;;;;;;;5073684;28;20389;-65
2022/03/16 13:27:22;;;;;;;22.93;14.70;;;;;;;;;;5073528;28;20405;-73
2022/03/16 13:29:49;;;;;;;24.60;15.70;;;;;;;;;;5073450;28;20934;-70
2022/03/16 13:32:16;;;;;;;20.60;14.10;;;;;;;;;;5072946;28;20413;-67
2022/03/16 13:34:43;;;;;;;23.90;14.50;;;;;;;;;;5073539;28;20598;-74
2022/03/16 13:37:30;;;;;;;21.23;14.00;;;;;;;;;;5073515;28;20416;-66
2022/03/16 13:40:02;;;;;;;25.10;13.83;;;;;;;;;;5073342;28;20401;-67
2022/03/16 13:42:30;;;;;;;20.77;12.70;;;;;;;;;;5073819;28;20483;-72
2022/03/16 13:45:10;;;;;;;22.23;14.70;;;;;;;;;;5075384;28;20450;-77
2022/03/16 13:47:36;;;;;;;20.33;13.13;;;;;;;;;;5073388;28;20432;-73
2022/03/16 13:50:02;;;;;;;21.70;14.40;;;;;;;;;;5073236;28;20474;-72
2022/03/16 13:52:34;;;;;;;18.80;13.10;;;;;;;;;;5073242;28;20403;-72
2022/03/16 13:55:12;;;;;;;20.00;13.40;;;;;;;;;;5073340;28;20431;-77
2022/03/16 13:57:42;;;;;;;18.63;12.77;;;;;;;;;;5073282;28;20397;-70
2022/03/16 14:00:09;;;;;;;20.80;13.53;;;;;;;;;;5073063;28;20420;-68
2022/03/16 14:02:36;;;;;;;20.10;13.13;;;;;;;;;;5073066;28;20414;-71
2022/03/16 14:05:04;;;;;;;23.00;15.00;;;;;;;;;;5073567;28;20475;-75
2022/03/16 14:07:33;;;;;;;21.70;11.43;;;;;;;;;;5073248;28;20408;-76
2022/03/16 14:10:03;;;;;;;19.20;12.20;;;;;;;;;;5073096;28;20448;-77
2022/03/16 14:12:33;;;;;;;18.27;13.20;;;;;;;;;;5073095;28;20428;-69
2022/03/16 14:15:03;;;;;;;15.70;11.53;;;;;;;;;;5073003;28;20416;-72
2022/03/16 14:17:48;;;;;;;22.93;14.50;;;;;;;;;;5073079;28;20421;-76
2022/03/16 14:20:14;;;;;;;18.63;13.93;;;;;;;;;;5073068;28;20903;-78
2022/03/16 14:22:44;;;;;;;22.87;12.43;;;;;;;;;;5072955;28;20409;-77
2022/03/16 14:25:30;;;;;;;19.97;12.70;;;;;;;;;;5073214;28;20416;-73
2022/03/16 14:27:57;;;;;;;19.70;13.30;;;;;;;;;;5072100;28;20412;-68
2022/03/16 14:30:27;;;;;;;21.03;12.70;;;;;;;;;;5072746;28;20519;-72
2022/03/16 14:32:57;;;;;;;19.17;13.20;;;;;;;;;;5072756;28;20472;-67
2022/03/16 14:35:23;;;;;;;22.10;13.30;;;;;;;;;;5072896;28;20777;-65
2022/03/16 14:37:51;;;;;;;22.83;13.17;;;;;;;;;;5072912;28;20901;-65
2022/03/16 14:40:18;;;;;;;23.93;14.13;;;;;;;;;;5073930;28;20396;-78
2022/03/16 14:42:45;;;;;;;19.87;13.67;;;;;;;;;;5074085;28;20413;-76